sensor_id;sensor_type;location;lat;lon;timestamp;P1;durP1;ratioP1;P2;durP2;ratioP2
35975;SDS011;22055;0.000;0.000;2022-12-07T00:01:44;8.18;;;2.63;;
35975;SDS011;22055;0.000;0.000;2022-12-07T00:04:15;6.35;;;2.25;;
35975;SDS011;22055;0.000;0.000;2022-12-07T00:06:45;7.50;;;2.38;;
35975;SDS011;22055;0.000;0.000;2022-12-07T00:09:15;4.18;;;2.38;;
35975;SDS011;22055;0.000;0.000;2022-12-07T00:11:44;5.05;;;2.13;;
35975;SDS011;22055;0.000;0.000;2022-12-07T00:14:13;9.40;;;2.78;;
35975;SDS011;22055;0.000;0.000;2022-12-07T00:16:42;6.55;;;2.20;;
35975;SDS011;22055;0.000;0.000;2022-12-07T00:19:12;4.80;;;2.20;;
35975;SDS011;22055;0.000;0.000;2022-12-07T00:21:43;5.43;;;2.67;;
35975;SDS011;22055;0.000;0.000;2022-12-07T00:24:11;7.40;;;2.25;;
35975;SDS011;22055;0.000;0.000;2022-12-07T00:26:39;8.30;;;2.35;;
35975;SDS011;22055;0.000;0.000;2022-12-07T00:29:13;6.55;;;2.47;;
35975;SDS011;22055;0.000;0.000;2022-12-07T00:31:43;4.72;;;2.63;;
35975;SDS011;22055;0.000;0.000;2022-12-07T00:34:20;8.25;;;2.55;;
35975;SDS011;22055;0.000;0.000;2022-12-07T00:36:49;7.55;;;2.25;;
35975;SDS011;22055;0.000;0.000;2022-12-07T00:39:16;5.47;;;2.22;;
35975;SDS011;22055;0.000;0.000;2022-12-07T00:41:45;6.00;;;2.55;;
35975;SDS011;22055;0.000;0.000;2022-12-07T00:44:13;5.85;;;2.38;;
35975;SDS011;22055;0.000;0.000;2022-12-07T00:46:42;6.35;;;2.55;;
35975;SDS011;22055;0.000;0.000;2022-12-07T00:49:12;5.00;;;2.00;;
35975;SDS011;22055;0.000;0.000;2022-12-07T00:51:40;7.65;;;2.63;;
35975;SDS011;22055;0.000;0.000;2022-12-07T00:54:08;6.20;;;2.30;;
35975;SDS011;22055;0.000;0.000;2022-12-07T00:56:36;4.65;;;2.10;;
35975;SDS011;22055;0.000;0.000;2022-12-07T00:59:04;4.47;;;2.30;;
35975;SDS011;22055;0.000;0.000;2022-12-07T01:01:34;4.65;;;2.05;;
35975;SDS011;22055;0.000;0.000;2022-12-07T01:04:03;5.45;;;2.10;;
35975;SDS011;22055;0.000;0.000;2022-12-07T01:06:31;5.50;;;2.10;;
35975;SDS011;22055;0.000;0.000;2022-12-07T01:09:00;5.60;;;2.40;;
35975;SDS011;22055;0.000;0.000;2022-12-07T01:11:29;7.07;;;2.60;;
35975;SDS011;22055;0.000;0.000;2022-12-07T01:13:58;3.75;;;2.33;;
35975;SDS011;22055;0.000;0.000;2022-12-07T01:16:28;6.03;;;2.50;;
35975;SDS011;22055;0.000;0.000;2022-12-07T01:18:57;3.15;;;2.00;;
35975;SDS011;22055;0.000;0.000;2022-12-07T01:21:29;3.53;;;1.83;;
35975;SDS011;22055;0.000;0.000;2022-12-07T01:24:00;4.50;;;2.30;;
35975;SDS011;22055;0.000;0.000;2022-12-07T01:26:29;4.00;;;2.35;;
35975;SDS011;22055;0.000;0.000;2022-12-07T01:28:57;3.05;;;2.10;;
35975;SDS011;22055;0.000;0.000;2022-12-07T01:31:27;2.58;;;2.08;;
35975;SDS011;22055;0.000;0.000;2022-12-07T01:33:56;3.78;;;2.30;;
35975;SDS011;22055;0.000;0.000;2022-12-07T01:36:24;2.25;;;2.05;;
35975;SDS011;22055;0.000;0.000;2022-12-07T01:38:58;3.92;;;2.33;;
35975;SDS011;22055;0.000;0.000;2022-12-07T01:41:28;3.60;;;2.25;;
35975;SDS011;22055;0.000;0.000;2022-12-07T01:46:42;2.83;;;2.17;;
35975;SDS011;22055;0.000;0.000;2022-12-07T01:49:11;2.85;;;1.80;;
35975;SDS011;22055;0.000;0.000;2022-12-07T01:51:40;2.17;;;1.95;;
35975;SDS011;22055;0.000;0.000;2022-12-07T01:54:09;4.07;;;2.47;;
35975;SDS011;22055;0.000;0.000;2022-12-07T01:56:40;6.88;;;2.17;;
35975;SDS011;22055;0.000;0.000;2022-12-07T01:59:10;3.03;;;2.05;;
35975;SDS011;22055;0.000;0.000;2022-12-07T02:01:38;3.70;;;1.88;;
35975;SDS011;22055;0.000;0.000;2022-12-07T02:04:07;2.85;;;2.00;;
35975;SDS011;22055;0.000;0.000;2022-12-07T02:06:35;2.97;;;1.98;;
35975;SDS011;22055;0.000;0.000;2022-12-07T02:09:04;2.90;;;1.92;;
35975;SDS011;22055;0.000;0.000;2022-12-07T02:11:32;3.92;;;2.47;;
35975;SDS011;22055;0.000;0.000;2022-12-07T02:14:03;2.53;;;2.00;;
35975;SDS011;22055;0.000;0.000;2022-12-07T02:26:55;3.55;;;2.13;;
35975;SDS011;22055;0.000;0.000;2022-12-07T02:30:13;2.88;;;2.25;;
35975;SDS011;22055;0.000;0.000;2022-12-07T02:32:26;4.18;;;1.80;;
35975;SDS011;22055;0.000;0.000;2022-12-07T02:35:03;3.38;;;2.25;;
35975;SDS011;22055;0.000;0.000;2022-12-07T02:40:27;3.75;;;1.95;;
35975;SDS011;22055;0.000;0.000;2022-12-07T02:43:16;3.80;;;2.30;;
35975;SDS011;22055;0.000;0.000;2022-12-07T02:45:45;2.75;;;2.05;;
35975;SDS011;22055;0.000;0.000;2022-12-07T02:48:14;2.70;;;1.88;;
35975;SDS011;22055;0.000;0.000;2022-12-07T02:50:51;2.50;;;1.65;;
35975;SDS011;22055;0.000;0.000;2022-12-07T02:53:28;2.83;;;2.10;;
35975;SDS011;22055;0.000;0.000;2022-12-07T02:55:57;4.90;;;2.47;;
35975;SDS011;22055;0.000;0.000;2022-12-07T02:58:34;2.53;;;1.88;;
35975;SDS011;22055;0.000;0.000;2022-12-07T03:01:16;2.40;;;2.03;;
35975;SDS011;22055;0.000;0.000;2022-12-07T03:03:53;5.65;;;2.13;;
35975;SDS011;22055;0.000;0.000;2022-12-07T03:06:30;2.08;;;1.70;;
35975;SDS011;22055;0.000;0.000;2022-12-07T03:11:38;2.00;;;1.80;;
35975;SDS011;22055;0.000;0.000;2022-12-07T03:14:13;2.92;;;1.80;;
35975;SDS011;22055;0.000;0.000;2022-12-07T03:16:45;2.40;;;1.50;;
35975;SDS011;22055;0.000;0.000;2022-12-07T03:19:18;2.78;;;1.73;;
35975;SDS011;22055;0.000;0.000;2022-12-07T03:21:49;2.05;;;1.70;;
35975;SDS011;22055;0.000;0.000;2022-12-07T03:24:18;2.13;;;1.85;;
35975;SDS011;22055;0.000;0.000;2022-12-07T03:26:55;1.80;;;1.70;;
35975;SDS011;22055;0.000;0.000;2022-12-07T03:29:30;2.97;;;1.63;;
35975;SDS011;22055;0.000;0.000;2022-12-07T03:31:59;3.33;;;2.10;;
35975;SDS011;22055;0.000;0.000;2022-12-07T03:34:32;3.53;;;1.70;;
35975;SDS011;22055;0.000;0.000;2022-12-07T03:39:35;4.07;;;1.95;;
35975;SDS011;22055;0.000;0.000;2022-12-07T03:42:04;2.50;;;1.77;;
35975;SDS011;22055;0.000;0.000;2022-12-07T03:44:34;3.60;;;1.63;;
35975;SDS011;22055;0.000;0.000;2022-12-07T03:47:13;2.40;;;1.73;;
35975;SDS011;22055;0.000;0.000;2022-12-07T03:49:50;3.13;;;1.75;;
35975;SDS011;22055;0.000;0.000;2022-12-07T03:55:28;3.22;;;2.38;;
35975;SDS011;22055;0.000;0.000;2022-12-07T03:58:09;1.75;;;1.65;;
35975;SDS011;22055;0.000;0.000;2022-12-07T04:00:38;2.83;;;2.22;;
35975;SDS011;22055;0.000;0.000;2022-12-07T04:03:08;3.45;;;1.90;;
35975;SDS011;22055;0.000;0.000;2022-12-07T04:05:38;2.63;;;1.80;;
35975;SDS011;22055;0.000;0.000;2022-12-07T04:08:06;1.70;;;1.60;;
35975;SDS011;22055;0.000;0.000;2022-12-07T04:10:36;1.92;;;1.73;;
35975;SDS011;22055;0.000;0.000;2022-12-07T04:13:04;3.30;;;2.47;;
35975;SDS011;22055;0.000;0.000;2022-12-07T04:15:32;2.03;;;1.83;;
35975;SDS011;22055;0.000;0.000;2022-12-07T04:18:00;1.50;;;1.40;;
35975;SDS011;22055;0.000;0.000;2022-12-07T04:20:30;2.83;;;2.10;;
35975;SDS011;22055;0.000;0.000;2022-12-07T04:22:59;2.47;;;1.52;;
35975;SDS011;22055;0.000;0.000;2022-12-07T04:25:28;4.57;;;1.67;;
35975;SDS011;22055;0.000;0.000;2022-12-07T04:27:56;2.75;;;1.88;;
35975;SDS011;22055;0.000;0.000;2022-12-07T04:30:25;2.50;;;1.80;;
35975;SDS011;22055;0.000;0.000;2022-12-07T04:32:53;1.73;;;1.20;;
35975;SDS011;22055;0.000;0.000;2022-12-07T04:35:26;1.75;;;1.63;;
35975;SDS011;22055;0.000;0.000;2022-12-07T04:37:54;2.55;;;1.35;;
35975;SDS011;22055;0.000;0.000;2022-12-07T05:02:37;1.50;;;1.40;;
35975;SDS011;22055;0.000;0.000;2022-12-07T05:05:29;2.95;;;2.42;;
35975;SDS011;22055;0.000;0.000;2022-12-07T05:08:06;1.98;;;1.33;;
35975;SDS011;22055;0.000;0.000;2022-12-07T05:10:37;8.38;;;1.67;;
35975;SDS011;22055;0.000;0.000;2022-12-07T05:16:23;18.70;;;3.40;;
35975;SDS011;22055;0.000;0.000;2022-12-07T05:19:06;15.32;;;2.40;;
35975;SDS011;22055;0.000;0.000;2022-12-07T05:27:24;12.18;;;2.75;;
35975;SDS011;22055;0.000;0.000;2022-12-07T05:30:03;13.88;;;2.30;;
35975;SDS011;22055;0.000;0.000;2022-12-07T05:32:35;16.73;;;3.53;;
35975;SDS011;22055;0.000;0.000;2022-12-07T05:35:03;18.58;;;2.90;;
35975;SDS011;22055;0.000;0.000;2022-12-07T05:40:40;19.33;;;3.17;;
35975;SDS011;22055;0.000;0.000;2022-12-07T05:43:23;19.85;;;3.15;;
35975;SDS011;22055;0.000;0.000;2022-12-07T05:49:05;16.70;;;3.70;;
35975;SDS011;22055;0.000;0.000;2022-12-07T05:51:49;13.68;;;2.53;;
35975;SDS011;22055;0.000;0.000;2022-12-07T05:54:26;12.65;;;2.30;;
35975;SDS011;22055;0.000;0.000;2022-12-07T06:08:55;15.18;;;2.08;;
35975;SDS011;22055;0.000;0.000;2022-12-07T06:11:23;14.98;;;2.90;;
35975;SDS011;22055;0.000;0.000;2022-12-07T06:17:21;13.65;;;3.88;;
35975;SDS011;22055;0.000;0.000;2022-12-07T06:19:51;10.55;;;3.38;;
35975;SDS011;22055;0.000;0.000;2022-12-07T06:22:23;16.48;;;3.78;;
35975;SDS011;22055;0.000;0.000;2022-12-07T06:31:17;19.67;;;3.42;;
35975;SDS011;22055;0.000;0.000;2022-12-07T06:37:00;15.27;;;2.60;;
35975;SDS011;22055;0.000;0.000;2022-12-07T06:52:07;12.40;;;2.45;;
35975;SDS011;22055;0.000;0.000;2022-12-07T06:54:33;14.60;;;1.92;;
35975;SDS011;22055;0.000;0.000;2022-12-07T06:56:59;16.10;;;2.22;;
35975;SDS011;22055;0.000;0.000;2022-12-07T06:59:26;28.73;;;3.30;;
35975;SDS011;22055;0.000;0.000;2022-12-07T07:01:52;14.23;;;3.10;;
35975;SDS011;22055;0.000;0.000;2022-12-07T07:04:18;44.90;;;5.70;;
35975;SDS011;22055;0.000;0.000;2022-12-07T07:06:44;32.58;;;3.58;;
35975;SDS011;22055;0.000;0.000;2022-12-07T07:09:12;27.33;;;4.03;;
35975;SDS011;22055;0.000;0.000;2022-12-07T07:11:38;23.92;;;3.20;;
35975;SDS011;22055;0.000;0.000;2022-12-07T07:14:05;22.77;;;3.05;;
35975;SDS011;22055;0.000;0.000;2022-12-07T07:16:31;16.80;;;3.58;;
35975;SDS011;22055;0.000;0.000;2022-12-07T07:18:57;20.85;;;3.00;;
35975;SDS011;22055;0.000;0.000;2022-12-07T07:21:23;18.85;;;3.65;;
35975;SDS011;22055;0.000;0.000;2022-12-07T07:23:49;14.35;;;3.10;;
35975;SDS011;22055;0.000;0.000;2022-12-07T07:26:15;19.05;;;3.53;;
35975;SDS011;22055;0.000;0.000;2022-12-07T07:28:42;12.10;;;2.55;;
35975;SDS011;22055;0.000;0.000;2022-12-07T07:31:08;13.50;;;2.35;;
35975;SDS011;22055;0.000;0.000;2022-12-07T07:33:34;19.02;;;2.80;;
35975;SDS011;22055;0.000;0.000;2022-12-07T07:36:00;17.35;;;2.85;;
35975;SDS011;22055;0.000;0.000;2022-12-07T07:38:27;11.10;;;2.45;;
35975;SDS011;22055;0.000;0.000;2022-12-07T07:40:53;17.75;;;3.15;;
35975;SDS011;22055;0.000;0.000;2022-12-07T07:43:19;12.68;;;2.72;;
35975;SDS011;22055;0.000;0.000;2022-12-07T07:45:45;21.45;;;2.58;;
35975;SDS011;22055;0.000;0.000;2022-12-07T07:48:12;16.42;;;2.95;;
35975;SDS011;22055;0.000;0.000;2022-12-07T07:50:38;12.63;;;3.05;;
35975;SDS011;22055;0.000;0.000;2022-12-07T07:53:05;19.73;;;2.88;;
35975;SDS011;22055;0.000;0.000;2022-12-07T07:55:31;20.33;;;2.63;;
35975;SDS011;22055;0.000;0.000;2022-12-07T07:57:57;11.20;;;2.33;;
35975;SDS011;22055;0.000;0.000;2022-12-07T08:00:24;7.47;;;2.00;;
35975;SDS011;22055;0.000;0.000;2022-12-07T08:02:50;9.15;;;1.98;;
35975;SDS011;22055;0.000;0.000;2022-12-07T08:05:16;15.35;;;2.65;;
35975;SDS011;22055;0.000;0.000;2022-12-07T08:07:43;14.07;;;2.17;;
35975;SDS011;22055;0.000;0.000;2022-12-07T08:10:09;18.88;;;3.13;;
35975;SDS011;22055;0.000;0.000;2022-12-07T08:12:37;10.93;;;2.25;;
35975;SDS011;22055;0.000;0.000;2022-12-07T08:15:24;13.70;;;2.17;;
35975;SDS011;22055;0.000;0.000;2022-12-07T08:17:50;15.40;;;2.50;;
35975;SDS011;22055;0.000;0.000;2022-12-07T08:20:16;13.95;;;2.75;;
35975;SDS011;22055;0.000;0.000;2022-12-07T08:22:43;14.63;;;2.35;;
35975;SDS011;22055;0.000;0.000;2022-12-07T08:25:09;10.73;;;2.35;;
35975;SDS011;22055;0.000;0.000;2022-12-07T08:27:36;14.27;;;2.55;;
35975;SDS011;22055;0.000;0.000;2022-12-07T08:30:02;17.00;;;3.10;;
35975;SDS011;22055;0.000;0.000;2022-12-07T08:32:29;17.73;;;2.63;;
35975;SDS011;22055;0.000;0.000;2022-12-07T08:34:55;19.52;;;3.00;;
35975;SDS011;22055;0.000;0.000;2022-12-07T08:37:22;20.88;;;3.13;;
35975;SDS011;22055;0.000;0.000;2022-12-07T08:39:48;17.27;;;2.40;;
35975;SDS011;22055;0.000;0.000;2022-12-07T08:42:14;14.02;;;2.22;;
35975;SDS011;22055;0.000;0.000;2022-12-07T08:44:40;22.48;;;2.75;;
35975;SDS011;22055;0.000;0.000;2022-12-07T08:47:07;17.92;;;2.47;;
35975;SDS011;22055;0.000;0.000;2022-12-07T08:49:38;14.32;;;2.47;;
35975;SDS011;22055;0.000;0.000;2022-12-07T08:52:05;17.05;;;3.00;;
35975;SDS011;22055;0.000;0.000;2022-12-07T09:00:58;17.83;;;2.83;;
35975;SDS011;22055;0.000;0.000;2022-12-07T09:03:25;12.68;;;2.53;;
35975;SDS011;22055;0.000;0.000;2022-12-07T09:05:52;13.77;;;2.20;;
35975;SDS011;22055;0.000;0.000;2022-12-07T09:08:18;15.27;;;2.58;;
35975;SDS011;22055;0.000;0.000;2022-12-07T09:10:45;16.17;;;2.60;;
35975;SDS011;22055;0.000;0.000;2022-12-07T09:13:13;20.73;;;3.22;;
35975;SDS011;22055;0.000;0.000;2022-12-07T09:15:39;16.70;;;2.05;;
35975;SDS011;22055;0.000;0.000;2022-12-07T09:18:06;22.65;;;3.38;;
35975;SDS011;22055;0.000;0.000;2022-12-07T09:20:32;13.07;;;2.85;;
35975;SDS011;22055;0.000;0.000;2022-12-07T09:22:59;18.55;;;4.05;;
35975;SDS011;22055;0.000;0.000;2022-12-07T09:25:26;16.10;;;2.65;;
35975;SDS011;22055;0.000;0.000;2022-12-07T09:27:56;15.90;;;2.72;;
35975;SDS011;22055;0.000;0.000;2022-12-07T09:30:24;14.57;;;2.85;;
35975;SDS011;22055;0.000;0.000;2022-12-07T09:32:52;23.67;;;3.13;;
35975;SDS011;22055;0.000;0.000;2022-12-07T09:35:19;18.88;;;3.08;;
35975;SDS011;22055;0.000;0.000;2022-12-07T09:37:46;20.25;;;3.65;;
35975;SDS011;22055;0.000;0.000;2022-12-07T09:40:13;17.23;;;2.22;;
35975;SDS011;22055;0.000;0.000;2022-12-07T09:42:41;16.13;;;3.25;;
35975;SDS011;22055;0.000;0.000;2022-12-07T09:45:13;18.37;;;2.87;;
35975;SDS011;22055;0.000;0.000;2022-12-07T09:47:41;16.65;;;2.92;;
35975;SDS011;22055;0.000;0.000;2022-12-07T09:50:23;14.70;;;2.97;;
35975;SDS011;22055;0.000;0.000;2022-12-07T09:52:50;14.93;;;3.08;;
35975;SDS011;22055;0.000;0.000;2022-12-07T09:55:26;10.45;;;2.40;;
35975;SDS011;22055;0.000;0.000;2022-12-07T09:57:53;20.42;;;2.78;;
35975;SDS011;22055;0.000;0.000;2022-12-07T10:00:21;17.60;;;2.55;;
35975;SDS011;22055;0.000;0.000;2022-12-07T10:02:50;22.92;;;3.42;;
35975;SDS011;22055;0.000;0.000;2022-12-07T10:05:19;14.20;;;2.55;;
35975;SDS011;22055;0.000;0.000;2022-12-07T10:07:48;13.13;;;2.35;;
35975;SDS011;22055;0.000;0.000;2022-12-07T10:10:16;12.52;;;2.15;;
35975;SDS011;22055;0.000;0.000;2022-12-07T10:13:00;14.50;;;2.28;;
35975;SDS011;22055;0.000;0.000;2022-12-07T10:15:40;18.10;;;2.30;;
35975;SDS011;22055;0.000;0.000;2022-12-07T10:18:17;13.93;;;2.00;;
35975;SDS011;22055;0.000;0.000;2022-12-07T10:20:45;14.20;;;2.35;;
35975;SDS011;22055;0.000;0.000;2022-12-07T10:23:16;11.00;;;2.00;;
35975;SDS011;22055;0.000;0.000;2022-12-07T10:25:43;12.65;;;2.00;;
35975;SDS011;22055;0.000;0.000;2022-12-07T10:28:14;7.63;;;2.00;;
35975;SDS011;22055;0.000;0.000;2022-12-07T10:30:59;11.90;;;2.38;;
35975;SDS011;22055;0.000;0.000;2022-12-07T10:33:37;7.13;;;2.13;;
35975;SDS011;22055;0.000;0.000;2022-12-07T10:36:37;8.75;;;2.15;;
35975;SDS011;22055;0.000;0.000;2022-12-07T10:39:04;10.57;;;2.33;;
35975;SDS011;22055;0.000;0.000;2022-12-07T10:41:59;10.48;;;2.22;;
35975;SDS011;22055;0.000;0.000;2022-12-07T10:44:25;16.23;;;2.28;;
35975;SDS011;22055;0.000;0.000;2022-12-07T10:57:22;11.20;;;2.45;;
35975;SDS011;22055;0.000;0.000;2022-12-07T10:59:55;7.57;;;1.95;;
35975;SDS011;22055;0.000;0.000;2022-12-07T11:05:04;16.60;;;2.67;;
35975;SDS011;22055;0.000;0.000;2022-12-07T11:10:08;9.95;;;2.45;;
35975;SDS011;22055;0.000;0.000;2022-12-07T11:12:47;14.95;;;2.03;;
35975;SDS011;22055;0.000;0.000;2022-12-07T11:17:49;11.45;;;1.95;;
35975;SDS011;22055;0.000;0.000;2022-12-07T11:22:51;11.68;;;2.38;;
35975;SDS011;22055;0.000;0.000;2022-12-07T11:25:20;11.57;;;2.22;;
35975;SDS011;22055;0.000;0.000;2022-12-07T11:27:53;9.77;;;2.33;;
35975;SDS011;22055;0.000;0.000;2022-12-07T11:30:34;24.33;;;2.72;;
35975;SDS011;22055;0.000;0.000;2022-12-07T11:33:08;14.45;;;2.55;;
35975;SDS011;22055;0.000;0.000;2022-12-07T11:38:16;9.20;;;1.98;;
35975;SDS011;22055;0.000;0.000;2022-12-07T11:40:53;15.43;;;2.78;;
35975;SDS011;22055;0.000;0.000;2022-12-07T11:43:37;11.25;;;2.30;;
35975;SDS011;22055;0.000;0.000;2022-12-07T11:46:11;11.18;;;2.13;;
35975;SDS011;22055;0.000;0.000;2022-12-07T11:48:40;12.60;;;2.08;;
35975;SDS011;22055;0.000;0.000;2022-12-07T11:51:09;11.55;;;2.83;;
35975;SDS011;22055;0.000;0.000;2022-12-07T11:56:34;12.02;;;2.30;;
35975;SDS011;22055;0.000;0.000;2022-12-07T11:59:04;14.98;;;2.35;;
35975;SDS011;22055;0.000;0.000;2022-12-07T12:06:27;12.73;;;2.20;;
35975;SDS011;22055;0.000;0.000;2022-12-07T12:14:20;13.35;;;2.35;;
35975;SDS011;22055;0.000;0.000;2022-12-07T12:16:55;8.15;;;2.22;;
35975;SDS011;22055;0.000;0.000;2022-12-07T12:21:56;14.35;;;1.98;;
35975;SDS011;22055;0.000;0.000;2022-12-07T12:24:25;13.02;;;2.60;;
35975;SDS011;22055;0.000;0.000;2022-12-07T12:26:54;12.48;;;1.85;;
35975;SDS011;22055;0.000;0.000;2022-12-07T12:29:27;15.18;;;2.30;;
35975;SDS011;22055;0.000;0.000;2022-12-07T12:34:57;15.35;;;2.55;;
35975;SDS011;22055;0.000;0.000;2022-12-07T12:42:50;20.90;;;3.33;;
35975;SDS011;22055;0.000;0.000;2022-12-07T12:45:26;14.35;;;2.92;;
35975;SDS011;22055;0.000;0.000;2022-12-07T12:52:49;17.70;;;3.05;;
35975;SDS011;22055;0.000;0.000;2022-12-07T12:55:17;17.60;;;3.00;;
35975;SDS011;22055;0.000;0.000;2022-12-07T12:57:46;12.68;;;3.13;;
35975;SDS011;22055;0.000;0.000;2022-12-07T13:00:20;23.40;;;3.40;;
35975;SDS011;22055;0.000;0.000;2022-12-07T13:02:47;22.73;;;3.10;;
35975;SDS011;22055;0.000;0.000;2022-12-07T13:13:00;15.75;;;2.35;;
35975;SDS011;22055;0.000;0.000;2022-12-07T13:15:36;21.25;;;2.60;;
35975;SDS011;22055;0.000;0.000;2022-12-07T13:18:48;14.13;;;2.80;;
35975;SDS011;22055;0.000;0.000;2022-12-07T13:20:53;25.63;;;3.28;;
35975;SDS011;22055;0.000;0.000;2022-12-07T13:23:24;23.38;;;3.20;;
35975;SDS011;22055;0.000;0.000;2022-12-07T13:25:53;10.98;;;2.45;;
35975;SDS011;22055;0.000;0.000;2022-12-07T13:28:21;18.73;;;2.55;;
35975;SDS011;22055;0.000;0.000;2022-12-07T13:33:17;32.65;;;3.28;;
35975;SDS011;22055;0.000;0.000;2022-12-07T13:35:44;23.00;;;3.05;;
35975;SDS011;22055;0.000;0.000;2022-12-07T13:38:25;23.70;;;3.45;;
35975;SDS011;22055;0.000;0.000;2022-12-07T13:41:00;17.13;;;2.83;;
35975;SDS011;22055;0.000;0.000;2022-12-07T13:43:26;15.98;;;2.67;;
35975;SDS011;22055;0.000;0.000;2022-12-07T13:45:57;19.02;;;2.92;;
35975;SDS011;22055;0.000;0.000;2022-12-07T13:48:30;17.20;;;3.00;;
35975;SDS011;22055;0.000;0.000;2022-12-07T13:50:58;18.63;;;3.28;;
35975;SDS011;22055;0.000;0.000;2022-12-07T13:53:26;66.20;;;7.00;;
35975;SDS011;22055;0.000;0.000;2022-12-07T13:55:55;38.92;;;5.07;;
35975;SDS011;22055;0.000;0.000;2022-12-07T13:58:21;39.90;;;4.90;;
35975;SDS011;22055;0.000;0.000;2022-12-07T14:00:48;30.15;;;3.65;;
35975;SDS011;22055;0.000;0.000;2022-12-07T14:05:41;22.67;;;3.20;;
35975;SDS011;22055;0.000;0.000;2022-12-07T14:10:41;23.88;;;3.88;;
35975;SDS011;22055;0.000;0.000;2022-12-07T14:16:23;11.23;;;2.80;;
35975;SDS011;22055;0.000;0.000;2022-12-07T14:18:51;23.45;;;3.33;;
35975;SDS011;22055;0.000;0.000;2022-12-07T14:21:27;14.70;;;2.60;;
35975;SDS011;22055;0.000;0.000;2022-12-07T14:24:28;25.23;;;3.83;;
35975;SDS011;22055;0.000;0.000;2022-12-07T14:26:48;18.25;;;3.03;;
35975;SDS011;22055;0.000;0.000;2022-12-07T14:31:47;9.23;;;2.10;;
35975;SDS011;22055;0.000;0.000;2022-12-07T14:34:13;11.00;;;2.47;;
35975;SDS011;22055;0.000;0.000;2022-12-07T14:36:40;8.98;;;2.75;;
35975;SDS011;22055;0.000;0.000;2022-12-07T14:39:06;18.50;;;2.40;;
35975;SDS011;22055;0.000;0.000;2022-12-07T14:41:32;13.65;;;3.03;;
35975;SDS011;22055;0.000;0.000;2022-12-07T14:44:20;17.13;;;2.67;;
35975;SDS011;22055;0.000;0.000;2022-12-07T14:46:47;16.35;;;2.60;;
35975;SDS011;22055;0.000;0.000;2022-12-07T14:49:14;19.95;;;3.03;;
35975;SDS011;22055;0.000;0.000;2022-12-07T14:51:40;18.55;;;3.10;;
35975;SDS011;22055;0.000;0.000;2022-12-07T14:54:06;13.88;;;3.55;;
35975;SDS011;22055;0.000;0.000;2022-12-07T14:56:35;15.43;;;2.95;;
35975;SDS011;22055;0.000;0.000;2022-12-07T14:59:01;15.32;;;2.97;;
35975;SDS011;22055;0.000;0.000;2022-12-07T15:01:27;14.48;;;2.55;;
35975;SDS011;22055;0.000;0.000;2022-12-07T15:03:54;17.45;;;2.90;;
35975;SDS011;22055;0.000;0.000;2022-12-07T15:06:20;21.08;;;2.88;;
35975;SDS011;22055;0.000;0.000;2022-12-07T15:08:46;16.15;;;3.00;;
35975;SDS011;22055;0.000;0.000;2022-12-07T15:11:16;17.58;;;3.20;;
35975;SDS011;22055;0.000;0.000;2022-12-07T15:13:43;18.63;;;2.75;;
35975;SDS011;22055;0.000;0.000;2022-12-07T15:16:28;19.80;;;2.70;;
35975;SDS011;22055;0.000;0.000;2022-12-07T15:18:54;13.45;;;2.28;;
35975;SDS011;22055;0.000;0.000;2022-12-07T15:21:21;18.00;;;3.00;;
35975;SDS011;22055;0.000;0.000;2022-12-07T15:23:47;18.67;;;2.33;;
35975;SDS011;22055;0.000;0.000;2022-12-07T15:26:13;22.10;;;2.83;;
35975;SDS011;22055;0.000;0.000;2022-12-07T15:28:40;22.58;;;2.72;;
35975;SDS011;22055;0.000;0.000;2022-12-07T15:31:13;14.82;;;3.22;;
35975;SDS011;22055;0.000;0.000;2022-12-07T15:36:06;12.52;;;2.53;;
35975;SDS011;22055;0.000;0.000;2022-12-07T15:38:32;15.32;;;2.60;;
35975;SDS011;22055;0.000;0.000;2022-12-07T15:40:58;21.80;;;3.17;;
35975;SDS011;22055;0.000;0.000;2022-12-07T15:43:24;12.35;;;2.30;;
35975;SDS011;22055;0.000;0.000;2022-12-07T15:46:09;14.45;;;2.45;;
35975;SDS011;22055;0.000;0.000;2022-12-07T15:48:35;18.80;;;2.60;;
35975;SDS011;22055;0.000;0.000;2022-12-07T15:51:05;18.63;;;2.50;;
35975;SDS011;22055;0.000;0.000;2022-12-07T15:53:32;14.40;;;2.30;;
35975;SDS011;22055;0.000;0.000;2022-12-07T15:55:58;10.20;;;2.58;;
35975;SDS011;22055;0.000;0.000;2022-12-07T15:58:25;8.90;;;2.03;;
35975;SDS011;22055;0.000;0.000;2022-12-07T16:00:51;9.05;;;2.20;;
35975;SDS011;22055;0.000;0.000;2022-12-07T16:03:17;9.32;;;2.22;;
35975;SDS011;22055;0.000;0.000;2022-12-07T16:05:50;15.13;;;2.35;;
35975;SDS011;22055;0.000;0.000;2022-12-07T16:08:17;16.10;;;2.50;;
35975;SDS011;22055;0.000;0.000;2022-12-07T16:10:43;11.07;;;2.50;;
35975;SDS011;22055;0.000;0.000;2022-12-07T16:13:10;16.52;;;2.60;;
35975;SDS011;22055;0.000;0.000;2022-12-07T16:15:39;14.93;;;2.50;;
35975;SDS011;22055;0.000;0.000;2022-12-07T16:18:06;14.10;;;2.63;;
35975;SDS011;22055;0.000;0.000;2022-12-07T16:20:32;14.60;;;3.30;;
35975;SDS011;22055;0.000;0.000;2022-12-07T16:22:58;13.07;;;2.33;;
35975;SDS011;22055;0.000;0.000;2022-12-07T16:25:25;12.90;;;2.50;;
35975;SDS011;22055;0.000;0.000;2022-12-07T16:27:51;14.43;;;2.83;;
35975;SDS011;22055;0.000;0.000;2022-12-07T16:30:18;11.93;;;2.95;;
35975;SDS011;22055;0.000;0.000;2022-12-07T16:32:44;14.00;;;2.13;;
35975;SDS011;22055;0.000;0.000;2022-12-07T16:35:10;9.82;;;2.38;;
35975;SDS011;22055;0.000;0.000;2022-12-07T16:37:37;11.05;;;2.25;;
35975;SDS011;22055;0.000;0.000;2022-12-07T16:40:03;14.00;;;2.65;;
35975;SDS011;22055;0.000;0.000;2022-12-07T16:42:33;18.45;;;3.95;;
35975;SDS011;22055;0.000;0.000;2022-12-07T16:44:59;24.20;;;3.05;;
35975;SDS011;22055;0.000;0.000;2022-12-07T16:47:26;19.15;;;3.08;;
35975;SDS011;22055;0.000;0.000;2022-12-07T16:49:52;17.85;;;2.38;;
35975;SDS011;22055;0.000;0.000;2022-12-07T16:52:19;24.98;;;3.33;;
35975;SDS011;22055;0.000;0.000;2022-12-07T16:54:45;20.10;;;4.00;;
35975;SDS011;22055;0.000;0.000;2022-12-07T16:57:11;20.55;;;3.13;;
35975;SDS011;22055;0.000;0.000;2022-12-07T16:59:38;21.42;;;3.20;;
35975;SDS011;22055;0.000;0.000;2022-12-07T17:02:04;23.65;;;3.08;;
35975;SDS011;22055;0.000;0.000;2022-12-07T17:04:32;18.90;;;3.40;;
35975;SDS011;22055;0.000;0.000;2022-12-07T17:06:58;16.58;;;2.90;;
35975;SDS011;22055;0.000;0.000;2022-12-07T17:09:24;20.63;;;3.28;;
35975;SDS011;22055;0.000;0.000;2022-12-07T17:11:51;17.40;;;3.35;;
35975;SDS011;22055;0.000;0.000;2022-12-07T17:14:17;24.13;;;3.33;;
35975;SDS011;22055;0.000;0.000;2022-12-07T17:17:01;20.85;;;3.10;;
35975;SDS011;22055;0.000;0.000;2022-12-07T17:19:29;18.20;;;3.10;;
35975;SDS011;22055;0.000;0.000;2022-12-07T17:21:55;11.95;;;2.40;;
35975;SDS011;22055;0.000;0.000;2022-12-07T17:24:22;15.32;;;2.30;;
35975;SDS011;22055;0.000;0.000;2022-12-07T17:26:48;18.67;;;2.47;;
35975;SDS011;22055;0.000;0.000;2022-12-07T17:29:14;13.25;;;2.75;;
35975;SDS011;22055;0.000;0.000;2022-12-07T17:31:41;11.68;;;2.65;;
35975;SDS011;22055;0.000;0.000;2022-12-07T17:34:11;16.00;;;3.05;;
35975;SDS011;22055;0.000;0.000;2022-12-07T17:36:38;15.15;;;2.53;;
35975;SDS011;22055;0.000;0.000;2022-12-07T17:39:07;20.60;;;3.72;;
35975;SDS011;22055;0.000;0.000;2022-12-07T17:41:34;22.85;;;3.65;;
35975;SDS011;22055;0.000;0.000;2022-12-07T17:44:19;26.48;;;2.65;;
35975;SDS011;22055;0.000;0.000;2022-12-07T17:46:47;17.63;;;3.47;;
35975;SDS011;22055;0.000;0.000;2022-12-07T17:49:14;20.55;;;3.10;;
35975;SDS011;22055;0.000;0.000;2022-12-07T17:51:40;11.80;;;2.60;;
35975;SDS011;22055;0.000;0.000;2022-12-07T17:54:25;18.27;;;3.30;;
35975;SDS011;22055;0.000;0.000;2022-12-07T17:56:52;16.05;;;2.63;;
35975;SDS011;22055;0.000;0.000;2022-12-07T17:59:18;13.27;;;2.70;;
35975;SDS011;22055;0.000;0.000;2022-12-07T18:01:45;14.00;;;3.25;;
35975;SDS011;22055;0.000;0.000;2022-12-07T18:04:12;18.75;;;2.70;;
35975;SDS011;22055;0.000;0.000;2022-12-07T18:06:38;10.35;;;2.53;;
35975;SDS011;22055;0.000;0.000;2022-12-07T18:09:05;18.23;;;2.90;;
35975;SDS011;22055;0.000;0.000;2022-12-07T18:11:31;14.60;;;2.65;;